sensor_id;sensor_type;location;lat;lon;timestamp;pressure;altitude;pressure_sealevel;temperature;humidity
67430;BME280;54298;52.076;5.264;2023-01-30T00:01:47;101649.0;;;7.38;86.86
67430;BME280;54298;52.076;5.264;2023-01-30T00:03:23;101645.0;;;7.44;86.6
67430;BME280;54298;52.076;5.264;2023-01-30T00:05:01;101646.0;;;7.44;86.87
67430;BME280;54298;52.076;5.264;2023-01-30T00:08:16;101645.0;;;7.44;86.63
67430;BME280;54298;52.076;5.264;2023-01-30T00:09:54;101641.0;;;7.42;86.82
67430;BME280;54298;52.076;5.264;2023-01-30T00:11:32;101651.0;;;7.5;86.57
67430;BME280;54298;52.076;5.264;2023-01-30T00:13:08;101644.0;;;7.58;86.25
67430;BME280;54298;52.076;5.264;2023-01-30T00:16:22;101655.0;;;7.58;86.26
67430;BME280;54298;52.076;5.264;2023-01-30T00:18:00;101649.0;;;7.41;87.17
67430;BME280;54298;52.076;5.264;2023-01-30T00:19:37;101640.0;;;7.47;87.0
67430;BME280;54298;52.076;5.264;2023-01-30T00:22:50;101626.0;;;7.56;86.96
67430;BME280;54298;52.076;5.264;2023-01-30T00:24:26;101630.0;;;7.47;87.19
67430;BME280;54298;52.076;5.264;2023-01-30T00:26:05;101618.0;;;7.53;87.2
67430;BME280;54298;52.076;5.264;2023-01-30T00:27:41;101620.0;;;7.55;87.19
67430;BME280;54298;52.076;5.264;2023-01-30T00:30:55;101613.0;;;7.58;87.17
67430;BME280;54298;52.076;5.264;2023-01-30T00:32:32;101620.0;;;7.62;87.0
67430;BME280;54298;52.076;5.264;2023-01-30T00:34:09;101616.0;;;7.55;87.39
67430;BME280;54298;52.076;5.264;2023-01-30T00:37:24;101613.0;;;7.68;86.8
67430;BME280;54298;52.076;5.264;2023-01-30T00:39:02;101606.0;;;7.7;86.8
67430;BME280;54298;52.076;5.264;2023-01-30T00:40:39;101603.0;;;7.78;86.46
67430;BME280;54298;52.076;5.264;2023-01-30T00:47:29;101582.0;;;7.95;85.71
67430;BME280;54298;52.076;5.264;2023-01-30T00:49:06;101583.0;;;7.79;86.55
67430;BME280;54298;52.076;5.264;2023-01-30T00:50:43;101584.0;;;7.78;86.56
67430;BME280;54298;52.076;5.264;2023-01-30T00:53:56;101575.0;;;7.83;86.4
67430;BME280;54298;52.076;5.264;2023-01-30T00:55:33;101576.0;;;7.84;86.3
67430;BME280;54298;52.076;5.264;2023-01-30T00:57:09;101573.0;;;7.85;86.39
67430;BME280;54298;52.076;5.264;2023-01-30T01:00:22;101581.0;;;7.82;86.61
67430;BME280;54298;52.076;5.264;2023-01-30T01:01:58;101574.0;;;7.89;86.35
67430;BME280;54298;52.076;5.264;2023-01-30T01:03:35;101577.0;;;8.05;85.77
67430;BME280;54298;52.076;5.264;2023-01-30T01:06:48;101583.0;;;8.03;85.66
67430;BME280;54298;52.076;5.264;2023-01-30T01:08:26;101571.0;;;7.86;85.96
67430;BME280;54298;52.076;5.264;2023-01-30T01:10:02;101565.0;;;8.03;85.63
67430;BME280;54298;52.076;5.264;2023-01-30T01:11:39;101551.0;;;8.06;85.43
67430;BME280;54298;52.076;5.264;2023-01-30T01:14:53;101549.0;;;7.97;85.54
67430;BME280;54298;52.076;5.264;2023-01-30T01:16:31;101546.0;;;7.95;85.93
67430;BME280;54298;52.076;5.264;2023-01-30T01:18:08;101537.0;;;8.0;85.88
67430;BME280;54298;52.076;5.264;2023-01-30T01:21:22;101545.0;;;8.05;85.71
67430;BME280;54298;52.076;5.264;2023-01-30T01:22:59;101535.0;;;8.15;85.45
67430;BME280;54298;52.076;5.264;2023-01-30T01:24:35;101531.0;;;8.13;85.63
67430;BME280;54298;52.076;5.264;2023-01-30T01:26:12;101523.0;;;8.11;85.57
67430;BME280;54298;52.076;5.264;2023-01-30T01:29:26;101524.0;;;7.97;86.34
67430;BME280;54298;52.076;5.264;2023-01-30T01:31:08;101523.0;;;8.14;85.74
67430;BME280;54298;52.076;5.264;2023-01-30T01:32:45;101526.0;;;8.09;86.05
67430;BME280;54298;52.076;5.264;2023-01-30T01:35:59;101524.0;;;8.11;86.16
67430;BME280;54298;52.076;5.264;2023-01-30T01:37:35;101515.0;;;8.13;86.05
67430;BME280;54298;52.076;5.264;2023-01-30T01:39:12;101512.0;;;8.13;86.33
67430;BME280;54298;52.076;5.264;2023-01-30T01:42:42;101502.0;;;8.11;86.5
67430;BME280;54298;52.076;5.264;2023-01-30T01:44:18;101500.0;;;8.19;85.91
67430;BME280;54298;52.076;5.264;2023-01-30T01:45:58;101505.0;;;8.3;85.8
67430;BME280;54298;52.076;5.264;2023-01-30T01:47:40;101515.0;;;8.17;86.16
67430;BME280;54298;52.076;5.264;2023-01-30T01:49:21;101505.0;;;8.09;86.54
67430;BME280;54298;52.076;5.264;2023-01-30T01:52:41;101506.0;;;8.22;86.41
67430;BME280;54298;52.076;5.264;2023-01-30T01:54:24;101510.0;;;8.09;86.76
67430;BME280;54298;52.076;5.264;2023-01-30T01:56:02;101505.0;;;8.03;86.92
67430;BME280;54298;52.076;5.264;2023-01-30T01:57:45;101505.0;;;8.08;87.1
67430;BME280;54298;52.076;5.264;2023-01-30T02:01:05;101509.0;;;8.14;87.04
67430;BME280;54298;52.076;5.264;2023-01-30T02:02:45;101505.0;;;8.15;87.14
67430;BME280;54298;52.076;5.264;2023-01-30T02:05:01;101498.0;;;8.15;87.48
67430;BME280;54298;52.076;5.264;2023-01-30T02:06:40;101492.0;;;8.15;87.64
67430;BME280;54298;52.076;5.264;2023-01-30T02:08:20;101492.0;;;8.2;87.69
67430;BME280;54298;52.076;5.264;2023-01-30T02:11:41;101499.0;;;8.13;88.15
67430;BME280;54298;52.076;5.264;2023-01-30T02:13:20;101499.0;;;8.09;88.27
67430;BME280;54298;52.076;5.264;2023-01-30T02:14:58;101493.0;;;8.14;88.4
67430;BME280;54298;52.076;5.264;2023-01-30T02:16:36;101502.0;;;8.14;88.43
67430;BME280;54298;52.076;5.264;2023-01-30T02:19:54;101502.0;;;8.11;88.62
67430;BME280;54298;52.076;5.264;2023-01-30T02:21:51;101505.0;;;8.07;88.94
67430;BME280;54298;52.076;5.264;2023-01-30T02:24:25;101498.0;;;8.02;89.27
67430;BME280;54298;52.076;5.264;2023-01-30T02:26:35;101500.0;;;8.13;89.23
67430;BME280;54298;52.076;5.264;2023-01-30T02:28:39;101498.0;;;8.02;89.33
67430;BME280;54298;52.076;5.264;2023-01-30T02:32:36;101498.0;;;7.99;89.64
67430;BME280;54298;52.076;5.264;2023-01-30T02:34:32;101489.0;;;8.02;89.29
67430;BME280;54298;52.076;5.264;2023-01-30T02:36:19;101493.0;;;7.91;89.93
67430;BME280;54298;52.076;5.264;2023-01-30T02:38:13;101480.0;;;7.87;90.18
67430;BME280;54298;52.076;5.264;2023-01-30T02:40:03;101489.0;;;7.88;90.04
67430;BME280;54298;52.076;5.264;2023-01-30T02:41:52;101482.0;;;7.85;90.45
67430;BME280;54298;52.076;5.264;2023-01-30T02:45:28;101491.0;;;7.72;91.05
67430;BME280;54298;52.076;5.264;2023-01-30T02:47:11;101492.0;;;7.78;91.09
67430;BME280;54298;52.076;5.264;2023-01-30T02:48:55;101476.0;;;7.69;91.34
67430;BME280;54298;52.076;5.264;2023-01-30T02:50:37;101488.0;;;7.74;91.25
67430;BME280;54298;52.076;5.264;2023-01-30T02:52:17;101478.0;;;7.74;91.31
67430;BME280;54298;52.076;5.264;2023-01-30T02:55:34;101483.0;;;7.87;91.0
67430;BME280;54298;52.076;5.264;2023-01-30T02:57:19;101488.0;;;7.92;90.61
67430;BME280;54298;52.076;5.264;2023-01-30T02:59:00;101486.0;;;7.85;90.79
67430;BME280;54298;52.076;5.264;2023-01-30T03:00:53;101482.0;;;7.83;90.82
67430;BME280;54298;52.076;5.264;2023-01-30T03:02:51;101480.0;;;7.94;90.54
67430;BME280;54298;52.076;5.264;2023-01-30T03:04:50;101480.0;;;7.94;90.6
67430;BME280;54298;52.076;5.264;2023-01-30T03:08:40;101481.0;;;7.95;90.37
67430;BME280;54298;52.076;5.264;2023-01-30T03:10:28;101466.0;;;7.89;90.53
67430;BME280;54298;52.076;5.264;2023-01-30T03:12:17;101467.0;;;7.8;91.06
67430;BME280;54298;52.076;5.264;2023-01-30T03:14:07;101468.0;;;7.75;91.25
67430;BME280;54298;52.076;5.264;2023-01-30T03:15:53;101458.0;;;7.72;91.51
67430;BME280;54298;52.076;5.264;2023-01-30T03:17:33;101451.0;;;7.73;91.47
67430;BME280;54298;52.076;5.264;2023-01-30T03:19:12;101457.0;;;7.72;91.57
67430;BME280;54298;52.076;5.264;2023-01-30T03:22:27;101455.0;;;7.7;91.65
67430;BME280;54298;52.076;5.264;2023-01-30T03:24:04;101455.0;;;7.69;91.9
67430;BME280;54298;52.076;5.264;2023-01-30T03:25:42;101446.0;;;7.73;91.6
67430;BME280;54298;52.076;5.264;2023-01-30T03:28:59;101449.0;;;7.86;91.13
67430;BME280;54298;52.076;5.264;2023-01-30T03:30:37;101445.0;;;7.87;90.88
67430;BME280;54298;52.076;5.264;2023-01-30T03:32:14;101449.0;;;7.86;90.8
67430;BME280;54298;52.076;5.264;2023-01-30T03:33:52;101447.0;;;7.94;90.75
67430;BME280;54298;52.076;5.264;2023-01-30T03:37:05;101444.0;;;7.95;90.45
67430;BME280;54298;52.076;5.264;2023-01-30T03:38:42;101435.0;;;8.0;90.2
67430;BME280;54298;52.076;5.264;2023-01-30T03:40:18;101441.0;;;8.09;90.06
67430;BME280;54298;52.076;5.264;2023-01-30T03:43:33;101437.0;;;8.05;90.15
67430;BME280;54298;52.076;5.264;2023-01-30T03:45:11;101438.0;;;8.07;89.96
67430;BME280;54298;52.076;5.264;2023-01-30T03:46:47;101440.0;;;8.02;90.16
67430;BME280;54298;52.076;5.264;2023-01-30T03:49:59;101438.0;;;8.1;89.97
67430;BME280;54298;52.076;5.264;2023-01-30T03:51:36;101436.0;;;8.16;89.77
67430;BME280;54298;52.076;5.264;2023-01-30T03:53:13;101451.0;;;8.17;89.54
67430;BME280;54298;52.076;5.264;2023-01-30T03:54:50;101439.0;;;8.18;89.52
67430;BME280;54298;52.076;5.264;2023-01-30T03:58:04;101447.0;;;8.19;89.42
67430;BME280;54298;52.076;5.264;2023-01-30T03:59:41;101455.0;;;8.11;89.72
67430;BME280;54298;52.076;5.264;2023-01-30T04:01:18;101448.0;;;8.06;89.98
67430;BME280;54298;52.076;5.264;2023-01-30T04:04:33;101436.0;;;8.13;89.88
67430;BME280;54298;52.076;5.264;2023-01-30T04:06:10;101438.0;;;8.15;89.64
67430;BME280;54298;52.076;5.264;2023-01-30T04:07:47;101438.0;;;8.15;89.66
67430;BME280;54298;52.076;5.264;2023-01-30T04:09:24;101436.0;;;8.19;89.36
67430;BME280;54298;52.076;5.264;2023-01-30T04:12:38;101439.0;;;8.16;89.11
67430;BME280;54298;52.076;5.264;2023-01-30T04:14:15;101445.0;;;8.23;89.18
67430;BME280;54298;52.076;5.264;2023-01-30T04:15:52;101447.0;;;8.19;89.17
67430;BME280;54298;52.076;5.264;2023-01-30T04:17:50;101435.0;;;8.23;88.84
67430;BME280;54298;52.076;5.264;2023-01-30T04:21:04;101443.0;;;8.31;88.56
67430;BME280;54298;52.076;5.264;2023-01-30T04:22:41;101434.0;;;8.38;88.19
67430;BME280;54298;52.076;5.264;2023-01-30T04:24:18;101441.0;;;8.4;87.91
67430;BME280;54298;52.076;5.264;2023-01-30T04:27:32;101456.0;;;8.38;87.82
67430;BME280;54298;52.076;5.264;2023-01-30T04:29:09;101456.0;;;8.34;87.65
67430;BME280;54298;52.076;5.264;2023-01-30T04:30:46;101455.0;;;8.33;87.61
67430;BME280;54298;52.076;5.264;2023-01-30T04:32:24;101450.0;;;8.38;87.61
67430;BME280;54298;52.076;5.264;2023-01-30T04:37:15;101459.0;;;8.49;86.98
67430;BME280;54298;52.076;5.264;2023-01-30T04:38:52;101463.0;;;8.42;86.89
67430;BME280;54298;52.076;5.264;2023-01-30T04:42:05;101457.0;;;8.39;87.01
67430;BME280;54298;52.076;5.264;2023-01-30T04:43:41;101460.0;;;8.34;87.19
67430;BME280;54298;52.076;5.264;2023-01-30T04:45:18;101462.0;;;8.36;86.79
67430;BME280;54298;52.076;5.264;2023-01-30T04:48:33;101457.0;;;8.39;86.6
67430;BME280;54298;52.076;5.264;2023-01-30T04:50:10;101463.0;;;8.39;86.22
67430;BME280;54298;52.076;5.264;2023-01-30T04:51:47;101465.0;;;8.34;85.8
67430;BME280;54298;52.076;5.264;2023-01-30T04:53:24;101467.0;;;8.36;85.39
67430;BME280;54298;52.076;5.264;2023-01-30T04:56:38;101469.0;;;8.39;85.19
67430;BME280;54298;52.076;5.264;2023-01-30T04:58:15;101470.0;;;8.34;85.41
67430;BME280;54298;52.076;5.264;2023-01-30T04:59:53;101457.0;;;8.31;84.81
67430;BME280;54298;52.076;5.264;2023-01-30T05:03:10;101460.0;;;8.34;84.1
67430;BME280;54298;52.076;5.264;2023-01-30T05:04:48;101460.0;;;8.39;83.91
67430;BME280;54298;52.076;5.264;2023-01-30T05:06:25;101451.0;;;8.47;83.21
67430;BME280;54298;52.076;5.264;2023-01-30T05:08:01;101455.0;;;8.38;82.89
67430;BME280;54298;52.076;5.264;2023-01-30T05:11:16;101453.0;;;8.38;82.36
67430;BME280;54298;52.076;5.264;2023-01-30T05:12:53;101466.0;;;8.36;81.61
67430;BME280;54298;52.076;5.264;2023-01-30T05:14:30;101453.0;;;8.3;81.45
67430;BME280;54298;52.076;5.264;2023-01-30T05:17:44;101446.0;;;8.39;81.05
67430;BME280;54298;52.076;5.264;2023-01-30T05:19:21;101463.0;;;8.36;81.09
67430;BME280;54298;52.076;5.264;2023-01-30T05:21:03;101472.0;;;8.43;80.74
67430;BME280;54298;52.076;5.264;2023-01-30T05:22:41;101480.0;;;8.43;81.0
67430;BME280;54298;52.076;5.264;2023-01-30T05:25:55;101468.0;;;8.31;80.5
67430;BME280;54298;52.076;5.264;2023-01-30T05:27:32;101465.0;;;8.44;80.36
67430;BME280;54298;52.076;5.264;2023-01-30T05:29:09;101468.0;;;8.41;80.34
67430;BME280;54298;52.076;5.264;2023-01-30T05:32:24;101465.0;;;8.35;80.02
67430;BME280;54298;52.076;5.264;2023-01-30T05:34:03;101473.0;;;8.19;80.61
67430;BME280;54298;52.076;5.264;2023-01-30T05:35:45;101478.0;;;8.18;79.23
67430;BME280;54298;52.076;5.264;2023-01-30T05:37:23;101481.0;;;8.17;79.41
67430;BME280;54298;52.076;5.264;2023-01-30T05:40:36;101474.0;;;8.32;79.55
67430;BME280;54298;52.076;5.264;2023-01-30T05:42:14;101480.0;;;8.2;79.78
67430;BME280;54298;52.076;5.264;2023-01-30T05:43:50;101487.0;;;8.32;79.31
67430;BME280;54298;52.076;5.264;2023-01-30T05:47:05;101500.0;;;8.32;79.3
67430;BME280;54298;52.076;5.264;2023-01-30T05:48:42;101497.0;;;8.32;78.99
67430;BME280;54298;52.076;5.264;2023-01-30T05:50:19;101493.0;;;8.3;78.94
67430;BME280;54298;52.076;5.264;2023-01-30T05:51:56;101480.0;;;8.39;78.3
67430;BME280;54298;52.076;5.264;2023-01-30T05:55:10;101480.0;;;8.22;78.58
67430;BME280;54298;52.076;5.264;2023-01-30T05:56:48;101494.0;;;8.14;78.52
67430;BME280;54298;52.076;5.264;2023-01-30T05:58:24;101489.0;;;8.02;77.87
67430;BME280;54298;52.076;5.264;2023-01-30T06:01:42;101490.0;;;8.01;77.62
67430;BME280;54298;52.076;5.264;2023-01-30T06:03:19;101483.0;;;7.94;78.05
67430;BME280;54298;52.076;5.264;2023-01-30T06:04:56;101486.0;;;8.01;77.56
67430;BME280;54298;52.076;5.264;2023-01-30T06:06:33;101488.0;;;8.06;77.28
67430;BME280;54298;52.076;5.264;2023-01-30T06:09:47;101493.0;;;7.95;77.16
67430;BME280;54298;52.076;5.264;2023-01-30T06:11:24;101491.0;;;7.94;77.12
67430;BME280;54298;52.076;5.264;2023-01-30T06:13:01;101500.0;;;7.81;77.38
67430;BME280;54298;52.076;5.264;2023-01-30T06:16:16;101505.0;;;7.9;77.27
67430;BME280;54298;52.076;5.264;2023-01-30T06:17:54;101513.0;;;7.83;76.99
67430;BME280;54298;52.076;5.264;2023-01-30T06:19:31;101505.0;;;7.74;76.52
67430;BME280;54298;52.076;5.264;2023-01-30T06:22:46;101500.0;;;7.66;76.64
67430;BME280;54298;52.076;5.264;2023-01-30T06:24:24;101519.0;;;7.64;77.03
67430;BME280;54298;52.076;5.264;2023-01-30T06:26:01;101523.0;;;7.67;76.81
67430;BME280;54298;52.076;5.264;2023-01-30T06:27:38;101527.0;;;7.58;76.33
67430;BME280;54298;52.076;5.264;2023-01-30T06:30:53;101508.0;;;7.58;75.94
67430;BME280;54298;52.076;5.264;2023-01-30T06:32:29;101509.0;;;7.58;75.69
67430;BME280;54298;52.076;5.264;2023-01-30T06:34:06;101508.0;;;7.49;75.72
67430;BME280;54298;52.076;5.264;2023-01-30T06:37:24;101514.0;;;7.53;75.49
67430;BME280;54298;52.076;5.264;2023-01-30T06:39:01;101506.0;;;7.48;75.72
67430;BME280;54298;52.076;5.264;2023-01-30T06:40:39;101517.0;;;7.31;76.08
67430;BME280;54298;52.076;5.264;2023-01-30T06:42:16;101519.0;;;7.35;75.87
67430;BME280;54298;52.076;5.264;2023-01-30T06:45:30;101511.0;;;7.31;76.22
67430;BME280;54298;52.076;5.264;2023-01-30T06:47:07;101505.0;;;7.33;76.03
67430;BME280;54298;52.076;5.264;2023-01-30T06:48:44;101505.0;;;7.21;76.08
67430;BME280;54298;52.076;5.264;2023-01-30T06:52:01;101506.0;;;7.22;76.11
67430;BME280;54298;52.076;5.264;2023-01-30T06:53:38;101511.0;;;7.31;75.74
67430;BME280;54298;52.076;5.264;2023-01-30T06:55:17;101510.0;;;7.21;76.02
67430;BME280;54298;52.076;5.264;2023-01-30T06:56:56;101517.0;;;7.17;76.05
67430;BME280;54298;52.076;5.264;2023-01-30T07:00:12;101524.0;;;7.3;75.77
67430;BME280;54298;52.076;5.264;2023-01-30T07:01:49;101525.0;;;7.38;74.91
67430;BME280;54298;52.076;5.264;2023-01-30T07:03:27;101535.0;;;7.22;75.36
67430;BME280;54298;52.076;5.264;2023-01-30T07:06:45;101533.0;;;7.21;75.16
67430;BME280;54298;52.076;5.264;2023-01-30T07:08:22;101538.0;;;7.15;74.5
67430;BME280;54298;52.076;5.264;2023-01-30T07:09:59;101541.0;;;7.14;73.88
67430;BME280;54298;52.076;5.264;2023-01-30T07:11:36;101543.0;;;7.12;73.44
67430;BME280;54298;52.076;5.264;2023-01-30T07:14:51;101543.0;;;7.09;73.55
67430;BME280;54298;52.076;5.264;2023-01-30T07:16:28;101555.0;;;7.04;73.42
67430;BME280;54298;52.076;5.264;2023-01-30T07:18:06;101553.0;;;7.12;72.67
67430;BME280;54298;52.076;5.264;2023-01-30T07:19:43;101559.0;;;7.16;72.17
67430;BME280;54298;52.076;5.264;2023-01-30T07:22:58;101551.0;;;7.1;72.16
67430;BME280;54298;52.076;5.264;2023-01-30T07:24:36;101560.0;;;7.07;72.59
67430;BME280;54298;52.076;5.264;2023-01-30T07:26:13;101556.0;;;7.13;71.83
67430;BME280;54298;52.076;5.264;2023-01-30T07:29:28;101558.0;;;7.2;71.44
67430;BME280;54298;52.076;5.264;2023-01-30T07:31:04;101555.0;;;6.99;71.91
67430;BME280;54298;52.076;5.264;2023-01-30T07:32:41;101558.0;;;6.92;71.59
67430;BME280;54298;52.076;5.264;2023-01-30T07:35:55;101560.0;;;6.92;71.36
67430;BME280;54298;52.076;5.264;2023-01-30T07:37:33;101561.0;;;6.99;71.33
67430;BME280;54298;52.076;5.264;2023-01-30T07:39:10;101556.0;;;7.01;71.44
67430;BME280;54298;52.076;5.264;2023-01-30T07:40:47;101569.0;;;7.1;70.95
67430;BME280;54298;52.076;5.264;2023-01-30T07:44:00;101576.0;;;7.02;71.03
67430;BME280;54298;52.076;5.264;2023-01-30T07:45:39;101572.0;;;7.01;70.87
67430;BME280;54298;52.076;5.264;2023-01-30T07:47:19;101587.0;;;7.1;70.83
67430;BME280;54298;52.076;5.264;2023-01-30T07:50:32;101585.0;;;7.06;70.95
67430;BME280;54298;52.076;5.264;2023-01-30T07:52:09;101585.0;;;7.01;70.77
67430;BME280;54298;52.076;5.264;2023-01-30T07:53:48;101577.0;;;7.1;70.64
67430;BME280;54298;52.076;5.264;2023-01-30T07:55:25;101580.0;;;6.94;71.17
67430;BME280;54298;52.076;5.264;2023-01-30T07:58:39;101580.0;;;7.0;70.94
67430;BME280;54298;52.076;5.264;2023-01-30T08:00:17;101577.0;;;7.01;71.0
67430;BME280;54298;52.076;5.264;2023-01-30T08:01:57;101570.0;;;6.98;71.08
67430;BME280;54298;52.076;5.264;2023-01-30T08:05:11;101586.0;;;7.08;70.66
67430;BME280;54298;52.076;5.264;2023-01-30T08:08:25;101589.0;;;7.08;70.74
67430;BME280;54298;52.076;5.264;2023-01-30T08:10:03;101595.0;;;7.09;70.81
67430;BME280;54298;52.076;5.264;2023-01-30T08:13:18;101577.0;;;7.18;70.69
67430;BME280;54298;52.076;5.264;2023-01-30T08:14:54;101581.0;;;7.17;70.69
67430;BME280;54298;52.076;5.264;2023-01-30T08:16:33;101576.0;;;7.13;70.77
67430;BME280;54298;52.076;5.264;2023-01-30T08:19:46;101580.0;;;7.24;70.66
67430;BME280;54298;52.076;5.264;2023-01-30T08:21:23;101592.0;;;7.18;70.64
67430;BME280;54298;52.076;5.264;2023-01-30T08:23:01;101593.0;;;7.17;70.55
67430;BME280;54298;52.076;5.264;2023-01-30T08:24:37;101593.0;;;7.21;70.58
67430;BME280;54298;52.076;5.264;2023-01-30T08:27:51;101594.0;;;7.23;70.44
67430;BME280;54298;52.076;5.264;2023-01-30T08:29:28;101598.0;;;7.34;70.22
67430;BME280;54298;52.076;5.264;2023-01-30T08:31:08;101608.0;;;7.37;70.13
67430;BME280;54298;52.076;5.264;2023-01-30T08:34:22;101594.0;;;7.3;69.8
67430;BME280;54298;52.076;5.264;2023-01-30T08:35:59;101610.0;;;7.35;69.61
67430;BME280;54298;52.076;5.264;2023-01-30T08:37:37;101601.0;;;7.39;69.11
67430;BME280;54298;52.076;5.264;2023-01-30T08:39:14;101623.0;;;7.44;69.08
67430;BME280;54298;52.076;5.264;2023-01-30T08:42:35;101617.0;;;7.51;68.86
67430;BME280;54298;52.076;5.264;2023-01-30T08:44:20;101625.0;;;7.53;68.38
67430;BME280;54298;52.076;5.264;2023-01-30T08:45:57;101634.0;;;7.59;68.45
67430;BME280;54298;52.076;5.264;2023-01-30T08:47:34;101628.0;;;7.7;68.19
67430;BME280;54298;52.076;5.264;2023-01-30T08:50:50;101641.0;;;7.75;68.02
67430;BME280;54298;52.076;5.264;2023-01-30T08:52:27;101642.0;;;7.8;68.0
67430;BME280;54298;52.076;5.264;2023-01-30T08:54:03;101637.0;;;7.81;68.02
67430;BME280;54298;52.076;5.264;2023-01-30T08:57:20;101637.0;;;7.78;67.89
67430;BME280;54298;52.076;5.264;2023-01-30T08:58:56;101634.0;;;7.8;67.99
67430;BME280;54298;52.076;5.264;2023-01-30T09:00:33;101630.0;;;7.79;68.02
67430;BME280;54298;52.076;5.264;2023-01-30T09:03:48;101642.0;;;7.67;68.27
67430;BME280;54298;52.076;5.264;2023-01-30T09:05:26;101644.0;;;7.72;68.77
67430;BME280;54298;52.076;5.264;2023-01-30T09:07:02;101641.0;;;7.73;68.52
67430;BME280;54298;52.076;5.264;2023-01-30T09:08:39;101655.0;;;7.7;68.2
67430;BME280;54298;52.076;5.264;2023-01-30T09:11:54;101650.0;;;7.73;68.36
67430;BME280;54298;52.076;5.264;2023-01-30T09:13:33;101646.0;;;7.73;68.33
67430;BME280;54298;52.076;5.264;2023-01-30T09:15:10;101656.0;;;7.9;68.41
67430;BME280;54298;52.076;5.264;2023-01-30T09:18:24;101644.0;;;7.94;67.99
67430;BME280;54298;52.076;5.264;2023-01-30T09:20:02;101674.0;;;7.9;67.99
67430;BME280;54298;52.076;5.264;2023-01-30T09:21:40;101658.0;;;7.87;68.17
67430;BME280;54298;52.076;5.264;2023-01-30T09:23:17;101661.0;;;7.94;68.34
67430;BME280;54298;52.076;5.264;2023-01-30T09:26:30;101669.0;;;7.89;67.84
67430;BME280;54298;52.076;5.264;2023-01-30T09:28:07;101669.0;;;7.89;68.08
67430;BME280;54298;52.076;5.264;2023-01-30T09:29:44;101672.0;;;7.94;67.77
67430;BME280;54298;52.076;5.264;2023-01-30T09:32:58;101662.0;;;7.91;68.02
67430;BME280;54298;52.076;5.264;2023-01-30T09:34:35;101676.0;;;7.92;67.7
67430;BME280;54298;52.076;5.264;2023-01-30T09:36:13;101675.0;;;7.91;67.52
67430;BME280;54298;52.076;5.264;2023-01-30T09:37:51;101665.0;;;8.02;67.61
67430;BME280;54298;52.076;5.264;2023-01-30T09:41:18;101671.0;;;7.97;67.75
67430;BME280;54298;52.076;5.264;2023-01-30T09:43:38;101683.0;;;7.98;67.63
67430;BME280;54298;52.076;5.264;2023-01-30T09:45:32;101682.0;;;7.99;67.55
67430;BME280;54298;52.076;5.264;2023-01-30T09:47:24;101690.0;;;8.14;67.52
67430;BME280;54298;52.076;5.264;2023-01-30T09:49:17;101685.0;;;8.17;67.08
67430;BME280;54298;52.076;5.264;2023-01-30T09:51:15;101698.0;;;8.27;66.8
67430;BME280;54298;52.076;5.264;2023-01-30T09:53:19;101696.0;;;8.36;67.1
67430;BME280;54298;52.076;5.264;2023-01-30T09:55:15;101700.0;;;8.34;66.6
67430;BME280;54298;52.076;5.264;2023-01-30T09:56:57;101705.0;;;8.28;66.72
67430;BME280;54298;52.076;5.264;2023-01-30T09:58:47;101706.0;;;8.26;66.8
67430;BME280;54298;52.076;5.264;2023-01-30T10:02:23;101716.0;;;8.27;66.78
67430;BME280;54298;52.076;5.264;2023-01-30T10:04:21;101708.0;;;8.23;67.05
67430;BME280;54298;52.076;5.264;2023-01-30T10:06:05;101705.0;;;8.24;66.92
67430;BME280;54298;52.076;5.264;2023-01-30T10:07:56;101701.0;;;8.2;67.27
67430;BME280;54298;52.076;5.264;2023-01-30T10:09:46;101700.0;;;8.28;67.12
67430;BME280;54298;52.076;5.264;2023-01-30T10:11:36;101691.0;;;8.25;67.33
67430;BME280;54298;52.076;5.264;2023-01-30T10:15:23;101705.0;;;8.18;66.87
67430;BME280;54298;52.076;5.264;2023-01-30T10:17:15;101725.0;;;8.19;66.97
67430;BME280;54298;52.076;5.264;2023-01-30T10:19:22;101718.0;;;8.3;66.92
67430;BME280;54298;52.076;5.264;2023-01-30T10:21:19;101737.0;;;8.24;67.28
67430;BME280;54298;52.076;5.264;2023-01-30T10:23:18;101742.0;;;8.32;67.49
67430;BME280;54298;52.076;5.264;2023-01-30T10:25:30;101735.0;;;8.42;67.08
67430;BME280;54298;52.076;5.264;2023-01-30T10:27:10;101735.0;;;8.41;66.72
67430;BME280;54298;52.076;5.264;2023-01-30T10:28:55;101739.0;;;8.45;66.75
67430;BME280;54298;52.076;5.264;2023-01-30T10:30:35;101748.0;;;8.38;66.47
67430;BME280;54298;52.076;5.264;2023-01-30T10:32:16;101742.0;;;8.35;66.45
67430;BME280;54298;52.076;5.264;2023-01-30T10:35:38;101737.0;;;8.55;66.48
67430;BME280;54298;52.076;5.264;2023-01-30T10:37:21;101743.0;;;8.39;66.44
67430;BME280;54298;52.076;5.264;2023-01-30T10:39:03;101753.0;;;8.48;66.35
67430;BME280;54298;52.076;5.264;2023-01-30T10:41:02;101748.0;;;8.44;66.37
67430;BME280;54298;52.076;5.264;2023-01-30T10:42:46;101744.0;;;8.33;66.53
67430;BME280;54298;52.076;5.264;2023-01-30T10:46:15;101735.0;;;8.41;66.17
67430;BME280;54298;52.076;5.264;2023-01-30T10:48:14;101745.0;;;8.4;66.1
67430;BME280;54298;52.076;5.264;2023-01-30T10:50:16;101745.0;;;8.36;66.38
67430;BME280;54298;52.076;5.264;2023-01-30T10:52:01;101746.0;;;8.35;66.08
67430;BME280;54298;52.076;5.264;2023-01-30T10:53:52;101746.0;;;8.25;65.98
67430;BME280;54298;52.076;5.264;2023-01-30T10:55:34;101735.0;;;8.3;66.35
67430;BME280;54298;52.076;5.264;2023-01-30T10:59:20;101739.0;;;8.48;66.08
67430;BME280;54298;52.076;5.264;2023-01-30T11:01:00;101751.0;;;8.49;66.08
67430;BME280;54298;52.076;5.264;2023-01-30T11:02:50;101743.0;;;8.63;65.6
67430;BME280;54298;52.076;5.264;2023-01-30T11:04:44;101745.0;;;8.63;65.47
67430;BME280;54298;52.076;5.264;2023-01-30T11:06:24;101749.0;;;8.51;65.69
67430;BME280;54298;52.076;5.264;2023-01-30T11:08:02;101749.0;;;8.47;65.97
67430;BME280;54298;52.076;5.264;2023-01-30T11:11:23;101752.0;;;8.39;66.28
67430;BME280;54298;52.076;5.264;2023-01-30T11:13:12;101741.0;;;8.49;65.87
67430;BME280;54298;52.076;5.264;2023-01-30T11:14:52;101750.0;;;8.57;65.86
67430;BME280;54298;52.076;5.264;2023-01-30T11:16:41;101742.0;;;8.64;65.52
67430;BME280;54298;52.076;5.264;2023-01-30T11:18:20;101759.0;;;8.72;65.39
67430;BME280;54298;52.076;5.264;2023-01-30T11:21:47;101752.0;;;8.64;65.16
67430;BME280;54298;52.076;5.264;2023-01-30T11:23:30;101742.0;;;8.72;64.97
67430;BME280;54298;52.076;5.264;2023-01-30T11:25:13;101752.0;;;8.73;65.02